Impacts METAR Board
IDs:

KCLT - Charlotte/Douglas In, NC, US

Updated at: 1300 UTC 07 Jul 2020
Potential Impact None Slight Moderate High
Time 07/01Z 07/02Z 07/03Z 07/04Z 07/05Z 07/06Z 07/07Z 07/08Z 07/09Z 07/10Z 07/11Z 07/12Z 07/13Z
Temp78 76 75 74 74 74 73 74 75 75 75 76 77
Dewpt69 70 70 70 69 69 69 70 70 70 71 71 71
Altim30.07 30.08 30.09 30.09 30.09 30.08 30.07 30.06 30.05 30.05 30.06 30.06 30.06
VIS10 10 10 10 10 10 10 10 10 10 10 10 10
CIG50 50 50 200 70 55 85 36 37 22 160 140 35
CoverBKNBKNBKNBKNOVCOVCBKNBKNOVCBKNBKNBKNOVC
FltCatVFRVFRVFRVFRVFRVFRVFRVFRVFRMVFRVFRVFRVFR
WX-----------------RA--------
WDir160170190000360205070708080
WSpd8 4 4 0 0 0 4 4 5 4 6 6 4
WGst-- -- -- -- -- -- -- -- -- -- -- -- --
Raw hourly METARs
KCLT 070052Z 16008KT 10SM FEW018 SCT038 BKN050 BKN200 26/21 A3007 RMK AO2 SLP174 T02560206
KCLT 070152Z 17004KT 10SM SCT018 SCT037 BKN050 24/21 A3008 RMK AO2 SLP176 T02440211
KCLT 070252Z 19004KT 10SM FEW014 SCT020 BKN050 24/21 A3009 RMK AO2 SLP178 T02390211 53006
KCLT 070352Z 00000KT 10SM FEW014 BKN200 BKN250 23/21 A3009 RMK AO2 SLP180 T02330211
KCLT 070452Z 00000KT 10SM OVC070 23/21 A3009 RMK AO2 SLP179 T02330206 403110200
KCLT 070552Z 00000KT 10SM OVC055 23/21 A3008 RMK AO2 SLP177 T02330206 10261 20233 58002
KCLT 070652Z 36004KT 10SM FEW027 SCT065 BKN085 23/21 A3007 RMK AO2 SLP175 T02280206
KCLT 070752Z 02004KT 10SM SCT024 BKN036 BKN070 23/21 A3006 RMK AO2 RAB15E25 SLP171 P0000 T02330211
KCLT 070852Z 05005KT 10SM -RA FEW028 BKN037 OVC060 24/21 A3005 RMK AO2 RAB43 SLP165 P0000 60000 T02390211 56010
KCLT 070952Z 07004KT 10SM BKN022 BKN250 24/21 A3005 RMK AO2 RAE0855 SLP167 P0000 T02390211
KCLT 071052Z 07006KT 10SM FEW023 BKN160 BKN250 24/22 A3006 RMK AO2 SLP168 T02390217
KCLT 071152Z 08006KT 10SM FEW010 FEW025 SCT110 BKN140 OVC250 24/22 A3006 RMK AO2 RAB06E16 SLP169 P0000 60000 70003 T02440217 10244 20228 51002
KCLT 071252Z 08004KT 10SM SCT006 BKN035 BKN150 OVC250 25/22 A3006 RMK AO2 SLP170 T02500217



Page loaded:  13:42 UTC  |   06:42 AM Pacific  |   07:42 AM Mountain  |   08:42 AM Central  |   09:42 AM Eastern

 

ADVISORIES

FORECASTS

FORECASTS

OBSERVATIONS

USER TOOLS

ABOUT US